Observation data for Ralls on 11/19/2019      Previous  Date       Current Mesonet Observations  Soil Data  Daily Summary Page  Observations in Plain Language
KRLS 190600Z 19003KT 09/M01 A2999 RMK A01 T00891006  RH  052%=      5-min Rain = 0
KRLS 190605Z 18003KT 09/M01 A2999 RMK A01 T00891006  RH  052%=      5-min Rain = 0
KRLS 190610Z 17003KT 09/M01 A2999 RMK A01 T00931006  RH  051%=      5-min Rain = 0
KRLS 190615Z 17002KT 10/M00 A2998 RMK A01 T00981004  RH  049%=      5-min Rain = 0
KRLS 190620Z 18002KT 10/M01 A2999 RMK A01 T01041005  RH  047%=      5-min Rain = 0
KRLS 190625Z 17002KT 10/M01 A2998 RMK A01 T01021007  RH  047%=      5-min Rain = 0
KRLS 190630Z 17002KT 10/M01 A2998 RMK A01 T01011007  RH  047%=      5-min Rain = 0
KRLS 190635Z 19002KT 10/M01 A2999 RMK A01 T01021006  RH  047%=      5-min Rain = 0
KRLS 190640Z 19002KT 10/M01 A2999 RMK A01 T00971007  RH  049%=      5-min Rain = 0
KRLS 190645Z 17001KT 09/M01 A2998 RMK A01 T00911006  RH  051%=      5-min Rain = 0
KRLS 190650Z 12002KT 10/M01 A2998 RMK A01 T01001006  RH  048%=      5-min Rain = 0
KRLS 190655Z 11002KT 10/M01 A2998 RMK A01 T00991006  RH  048%=      5-min Rain = 0
KRLS 190700Z 12001KT 10/M01 A2998 RMK A01 T00961007  RH  049%=      5-min Rain = 0
KRLS 190705Z 11000KT 09/M00 A2998 RMK A01 T00881003  RH  054%=      5-min Rain = 0
KRLS 190710Z 13001KT 09/00 A2998 RMK A01 T00850003  RH  057%=      5-min Rain = 0
KRLS 190715Z 13001KT 08/M00 A2998 RMK A01 T00791004  RH  056%=      5-min Rain = 0
KRLS 190720Z 17001KT 08/M00 A2998 RMK A01 T00841001  RH  056%=      5-min Rain = 0
KRLS 190725Z 21001KT 08/00 A2998 RMK A01 T00760004  RH  061%=      5-min Rain = 0
KRLS 190730Z 20002KT 07/02 A2998 RMK A01 T00700017  RH  070%=      5-min Rain = 0
KRLS 190735Z 21002KT 07/02 A2998 RMK A01 T00650020  RH  074%=      5-min Rain = 0
KRLS 190740Z 20003KT 07/02 A2998 RMK A01 T00650023  RH  076%=      5-min Rain = 0
KRLS 190745Z 20003KT 06/02 A2998 RMK A01 T00640021  RH  075%=      5-min Rain = 0
KRLS 190750Z 21002KT 06/02 A2998 RMK A01 T00620018  RH  075%=      5-min Rain = 0
KRLS 190755Z 22003KT 05/01 A2999 RMK A01 T00510005  RH  073%=      5-min Rain = 0
KRLS 190800Z 24003KT 05/01 A2999 RMK A01 T00520012  RH  076%=      5-min Rain = 0
KRLS 190805Z 24003KT 06/02 A2999 RMK A01 T00560019  RH  078%=      5-min Rain = 0
KRLS 190810Z 24004KT 06/02 A2999 RMK A01 T00550017  RH  078%=      5-min Rain = 0
KRLS 190815Z 24003KT 05/01 A2999 RMK A01 T00520014  RH  077%=      5-min Rain = 0
KRLS 190820Z 25003KT 05/01 A2999 RMK A01 T00500011  RH  077%=      5-min Rain = 0
KRLS 190825Z 25003KT 05/01 A2999 RMK A01 T00520013  RH  077%=      5-min Rain = 0
KRLS 190830Z 25003KT 06/01 A2999 RMK A01 T00560014  RH  076%=      5-min Rain = 0
KRLS 190835Z 25004KT 05/01 A2999 RMK A01 T00530009  RH  074%=      5-min Rain = 0
KRLS 190840Z 24004KT 05/01 A2999 RMK A01 T00530010  RH  075%=      5-min Rain = 0
KRLS 190845Z 24004KT 05/01 A2999 RMK A01 T00530010  RH  075%=      5-min Rain = 0
KRLS 190850Z 24003KT 05/01 A2998 RMK A01 T00530009  RH  074%=      5-min Rain = 0
KRLS 190855Z 24003KT 05/01 A2998 RMK A01 T00510008  RH  075%=      5-min Rain = 0
KRLS 190900Z 24003KT 05/01 A2998 RMK A01 T00490009  RH  076%=      5-min Rain = 0
KRLS 190905Z 23003KT 05/01 A2998 RMK A01 T00540005  RH  072%=      5-min Rain = 0
KRLS 190910Z 24004KT 06/00 A2999 RMK A01 T00630003  RH  066%=      5-min Rain = 0
KRLS 190915Z 25004KT 06/M00 A2999 RMK A01 T00601004  RH  064%=      5-min Rain = 0
KRLS 190920Z 25004KT 06/01 A2999 RMK A01 T00610008  RH  069%=      5-min Rain = 0
KRLS 190925Z 24004KT 05/01 A2999 RMK A01 T00540007  RH  073%=      5-min Rain = 0
KRLS 190930Z 25004KT 05/01 A2999 RMK A01 T00480005  RH  074%=      5-min Rain = 0
KRLS 190935Z 26004KT 06/01 A2999 RMK A01 T00570014  RH  075%=      5-min Rain = 0
KRLS 190940Z 27005KT 06/01 A2999 RMK A01 T00610013  RH  072%=      5-min Rain = 0
KRLS 190945Z 27005KT 06/00 A2999 RMK A01 T00600004  RH  068%=      5-min Rain = 0
KRLS 190950Z 27004KT 07/01 A2999 RMK A01 T00730006  RH  063%=      5-min Rain = 0
KRLS 190955Z 28004KT 07/00 A2999 RMK A01 T00690001  RH  063%=      5-min Rain = 0
KRLS 191000Z 29003KT 07/M00 A2999 RMK A01 T00681001  RH  062%=      5-min Rain = 0
KRLS 191005Z 31003KT 07/M00 A2998 RMK A01 T00741001  RH  060%=      5-min Rain = 0
KRLS 191010Z 32003KT 08/M00 A2998 RMK A01 T00831002  RH  056%=      5-min Rain = 0
KRLS 191015Z 34004KT 07/M00 A2998 RMK A01 T00731004  RH  059%=      5-min Rain = 0
KRLS 191020Z 34004KT 07/M00 A2998 RMK A01 T00661003  RH  062%=      5-min Rain = 0
KRLS 191025Z 34003KT 07/M00 A2998 RMK A01 T00651003  RH  063%=      5-min Rain = 0
KRLS 191030Z 34004KT 06/M00 A2998 RMK A01 T00601004  RH  064%=      5-min Rain = 0
KRLS 191035Z 34004KT 06/M00 A2998 RMK A01 T00601003  RH  065%=      5-min Rain = 0
KRLS 191040Z 35003KT 06/M00 A2998 RMK A01 T00571004  RH  066%=      5-min Rain = 0
KRLS 191045Z 35003KT 06/M00 A2998 RMK A01 T00571003  RH  066%=      5-min Rain = 0
KRLS 191050Z 36004KT 06/M00 A2998 RMK A01 T00581004  RH  065%=      5-min Rain = 0
KRLS 191055Z 35003KT 05/M01 A2998 RMK A01 T00541006  RH  066%=      5-min Rain = 0
KRLS 191100Z 33003KT 05/M01 A2998 RMK A01 T00511006  RH  067%=      5-min Rain = 0
KRLS 191105Z 35003KT 05/M01 A2998 RMK A01 T00501005  RH  068%=      5-min Rain = 0
KRLS 191110Z 01003KT 05/M01 A2998 RMK A01 T00521005  RH  067%=      5-min Rain = 0
KRLS 191115Z 36003KT 05/M01 A2997 RMK A01 T00521006  RH  067%=      5-min Rain = 0
KRLS 191120Z 00003KT 05/M01 A2997 RMK A01 T00531006  RH  066%=      5-min Rain = 0
KRLS 191125Z 01004KT 05/M01 A2997 RMK A01 T00531007  RH  066%=      5-min Rain = 0
KRLS 191130Z 01004KT 05/M01 A2997 RMK A01 T00501007  RH  067%=      5-min Rain = 0
KRLS 191135Z 35002KT 05/M01 A2997 RMK A01 T00501007  RH  067%=      5-min Rain = 0
KRLS 191140Z 34001KT 05/M01 A2997 RMK A01 T00501007  RH  067%=      5-min Rain = 0
KRLS 191145Z 29001KT 05/M01 A2997 RMK A01 T00491008  RH  067%=      5-min Rain = 0
KRLS 191150Z 26002KT 04/M01 A2997 RMK A01 T00421013  RH  068%=      5-min Rain = 0
KRLS 191155Z 27004KT 04/M01 A2998 RMK A01 T00371006  RH  074%=      5-min Rain = 0
KRLS 191200Z 28005KT 04/M01 A2998 RMK A01 T00351006  RH  076%=      5-min Rain = 0
KRLS 191205Z 32002KT 03/M01 A2997 RMK A01 T00331008  RH  075%=      5-min Rain = 0
KRLS 191210Z 33002KT 03/M01 A2997 RMK A01 T00331008  RH  075%=      5-min Rain = 0
KRLS 191215Z 33001KT 03/M01 A2997 RMK A01 T00331008  RH  075%=      5-min Rain = 0
KRLS 191220Z 31001KT 04/M01 A2997 RMK A01 T00361007  RH  074%=      5-min Rain = 0
KRLS 191225Z 31002KT 04/M01 A2997 RMK A01 T00371009  RH  073%=      5-min Rain = 0
KRLS 191230Z 28002KT 03/M01 A2997 RMK A01 T00321013  RH  073%=      5-min Rain = 0
KRLS 191235Z 30003KT 03/M01 A2997 RMK A01 T00331007  RH  076%=      5-min Rain = 0
KRLS 191240Z 30004KT 03/M01 A2997 RMK A01 T00291014  RH  074%=      5-min Rain = 0
KRLS 191245Z 35002KT 03/M01 A2997 RMK A01 T00321012  RH  074%=      5-min Rain = 0
KRLS 191250Z 31002KT 03/M01 A2997 RMK A01 T00321012  RH  074%=      5-min Rain = 0
KRLS 191255Z 34001KT 03/M01 A2997 RMK A01 T00331011  RH  074%=      5-min Rain = 0
KRLS 191300Z 33002KT 04/M01 A2997 RMK A01 T00371009  RH  073%=      5-min Rain = 0
KRLS 191305Z 33003KT 04/M01 A2997 RMK A01 T00361011  RH  072%=      5-min Rain = 0
KRLS 191310Z 33003KT 03/M01 A2997 RMK A01 T00341012  RH  072%=      5-min Rain = 0
KRLS 191315Z 33003KT 04/M01 A2997 RMK A01 T00361011  RH  072%=      5-min Rain = 0
KRLS 191320Z 33003KT 04/M01 A2997 RMK A01 T00371010  RH  072%=      5-min Rain = 0
KRLS 191325Z 32004KT 04/M01 A2997 RMK A01 T00381011  RH  071%=      5-min Rain = 0
KRLS 191330Z 33004KT 04/M01 A2997 RMK A01 T00411010  RH  070%=      5-min Rain = 0
KRLS 191335Z 33004KT 04/M01 A2997 RMK A01 T00401012  RH  070%=      5-min Rain = 0
KRLS 191340Z 33004KT 04/M01 A2997 RMK A01 T00411011  RH  070%=      5-min Rain = 0
KRLS 191345Z 34004KT 04/M01 A2997 RMK A01 T00421010  RH  070%=      5-min Rain = 0
KRLS 191350Z 32004KT 04/M01 A2997 RMK A01 T00431009  RH  070%=      5-min Rain = 0
KRLS 191355Z 34004KT 05/M01 A2997 RMK A01 T00491006  RH  068%=      5-min Rain = 0
KRLS 191400Z 33004KT 05/M01 A2997 RMK A01 T00541005  RH  066%=      5-min Rain = 0
KRLS 191405Z 33002KT 06/M00 A2998 RMK A01 T00591001  RH  066%=      5-min Rain = 0
KRLS 191410Z 32002KT 06/M00 A2998 RMK A01 T00641001  RH  064%=      5-min Rain = 0
KRLS 191415Z 34002KT 07/M00 A2998 RMK A01 T00681001  RH  062%=      5-min Rain = 0
KRLS 191420Z 01002KT 07/00 A2998 RMK A01 T00710000  RH  061%=      5-min Rain = 0
KRLS 191425Z 01002KT 07/00 A2998 RMK A01 T00740000  RH  060%=      5-min Rain = 0
KRLS 191430Z 36002KT 08/00 A2998 RMK A01 T00750001  RH  060%=      5-min Rain = 0
KRLS 191435Z 01002KT 08/00 A2998 RMK A01 T00780004  RH  060%=      5-min Rain = 0
KRLS 191440Z 02002KT 08/01 A2998 RMK A01 T00830008  RH  060%=      5-min Rain = 0
KRLS 191445Z 01002KT 09/01 A2998 RMK A01 T00870011  RH  060%=      5-min Rain = 0
KRLS 191450Z 04002KT 09/01 A2997 RMK A01 T00890013  RH  060%=      5-min Rain = 0
KRLS 191455Z 05003KT 09/01 A2997 RMK A01 T00920014  RH  059%=      5-min Rain = 0
KRLS 191500Z 06003KT 10/02 A2997 RMK A01 T00980020  RH  059%=      5-min Rain = 0
KRLS 191505Z 07003KT 11/03 A2998 RMK A01 T01060026  RH  059%=      5-min Rain = 0
KRLS 191510Z 11003KT 12/03 A2998 RMK A01 T01150027  RH  055%=      5-min Rain = 0
KRLS 191515Z 13003KT 13/02 A2998 RMK A01 T01250023  RH  050%=      5-min Rain = 0
KRLS 191520Z 12004KT 14/02 A2998 RMK A01 T01360019  RH  046%=      5-min Rain = 0
KRLS 191525Z 13005KT 14/02 A2998 RMK A01 T01370017  RH  045%=      5-min Rain = 0
KRLS 191530Z 14007KT 14/02 A2998 RMK A01 T01390015  RH  044%=      5-min Rain = 0
KRLS 191535Z 15008KT 14/01 A2998 RMK A01 T01420014  RH  042%=      5-min Rain = 0
KRLS 191540Z 16008KT 14/01 A2998 RMK A01 T01440014  RH  042%=      5-min Rain = 0
KRLS 191545Z 16006KT 14/01 A2998 RMK A01 T01440014  RH  042%=      5-min Rain = 0
KRLS 191550Z 16005KT 14/02 A2998 RMK A01 T01430017  RH  043%=      5-min Rain = 0
KRLS 191555Z 16005KT 15/02 A2998 RMK A01 T01490016  RH  041%=      5-min Rain = 0
KRLS 191600Z 16004KT 16/02 A2998 RMK A01 T01550018  RH  040%=      5-min Rain = 0
KRLS 191605Z 16006KT 16/01 A2998 RMK A01 T01560014  RH  039%=      5-min Rain = 0
KRLS 191610Z 16007KT 16/01 A2998 RMK A01 T01570014  RH  038%=      5-min Rain = 0
KRLS 191615Z 16007KT 16/01 A2998 RMK A01 T01620014  RH  037%=      5-min Rain = 0
KRLS 191620Z 16008KT 16/02 A2998 RMK A01 T01630016  RH  038%=      5-min Rain = 0
KRLS 191625Z 17008KT 17/02 A2998 RMK A01 T01680016  RH  037%=      5-min Rain = 0
KRLS 191630Z 16007KT 17/02 A2998 RMK A01 T01710017  RH  036%=      5-min Rain = 0
KRLS 191635Z 17008KT 17/02 A2998 RMK A01 T01740016  RH  035%=      5-min Rain = 0
KRLS 191640Z 17007KT 18/01 A2997 RMK A01 T01810010  RH  032%=      5-min Rain = 0
KRLS 191645Z 18009KT 18/00 A2997 RMK A01 T01820003  RH  030%=      5-min Rain = 0
KRLS 191650Z 18009KT 18/00 A2997 RMK A01 T01810003  RH  030%=      5-min Rain = 0
KRLS 191655Z 18009KT 18/00 A2997 RMK A01 T01830003  RH  030%=      5-min Rain = 0
KRLS 191700Z 19008KT 19/00 A2997 RMK A01 T01860003  RH  030%=      5-min Rain = 0
KRLS 191705Z 18010KT 19/00 A2997 RMK A01 T01850003  RH  030%=      5-min Rain = 0
KRLS 191710Z 19007KT 19/01 A2996 RMK A01 T01870005  RH  030%=      5-min Rain = 0
KRLS 191715Z 19009KT 19/00 A2996 RMK A01 T01910002  RH  028%=      5-min Rain = 0
KRLS 191720Z 18009KT 20/00 A2996 RMK A01 T01950002  RH  028%=      5-min Rain = 0
KRLS 191725Z 19009KT 20/00 A2995 RMK A01 T01980001  RH  027%=      5-min Rain = 0
KRLS 191730Z 19010KT 20/00 A2995 RMK A01 T01960002  RH  028%=      5-min Rain = 0
KRLS 191735Z 18009KT 20/01 A2995 RMK A01 T01990005  RH  028%=      5-min Rain = 0
KRLS 191740Z 17008KT 20/01 A2995 RMK A01 T02010006  RH  028%=      5-min Rain = 0
KRLS 191745Z 18011G16KT 20/01 A2994 RMK A01 T02010006  RH  028%=      5-min Rain = 0
KRLS 191750Z 18011KT 20/01 A2994 RMK A01 T02030006  RH  027%=      5-min Rain = 0
KRLS 191755Z 19010KT 21/01 A2994 RMK A01 T02050009  RH  027%=      5-min Rain = 0
KRLS 191800Z 18009KT 21/01 A2994 RMK A01 T02070011  RH  028%=      5-min Rain = 0
KRLS 191805Z 19011KT 21/01 A2994 RMK A01 T02110010  RH  027%=      5-min Rain = 0
KRLS 191810Z 17011G17KT 21/01 A2993 RMK A01 T02110010  RH  027%=      5-min Rain = 0
KRLS 191815Z 19011G17KT 22/01 A2993 RMK A01 T02150012  RH  026%=      5-min Rain = 0
KRLS 191820Z 18013KT 22/01 A2993 RMK A01 T02150011  RH  026%=      5-min Rain = 0
KRLS 191825Z 18012KT 22/01 A2992 RMK A01 T02180014  RH  026%=      5-min Rain = 0
KRLS 191830Z 19014KT 22/01 A2992 RMK A01 T02210014  RH  026%=      5-min Rain = 0
KRLS 191835Z 18014G20KT 22/01 A2992 RMK A01 T02210013  RH  026%=      5-min Rain = 0
KRLS 191840Z 19013G21KT 23/01 A2991 RMK A01 T02260012  RH  025%=      5-min Rain = 0
KRLS 191845Z 19015G22KT 23/01 A2991 RMK A01 T02290007  RH  023%=      5-min Rain = 0
KRLS 191850Z 19019G24KT 23/00 A2991 RMK A01 T02250004  RH  023%=      5-min Rain = 0
KRLS 191855Z 19016G21KT 23/01 A2991 RMK A01 T02270006  RH  023%=      5-min Rain = 0
KRLS 191900Z 18015G20KT 23/01 A2991 RMK A01 T02290010  RH  024%=      5-min Rain = 0
KRLS 191905Z 19016G22KT 23/01 A299 RMK A01 T02300006  RH  023%=      5-min Rain = 0
KRLS 191910Z 19018G24KT 23/M00 A299 RMK A01 T02341001  RH  021%=      5-min Rain = 0
KRLS 191915Z 20016G22KT 23/00 A299 RMK A01 T02340000  RH  022%=      5-min Rain = 0
KRLS 191920Z 18014G20KT 24/00 A299 RMK A01 T02390002  RH  021%=      5-min Rain = 0
KRLS 191925Z 19015G20KT 24/00 A299 RMK A01 T02360003  RH  022%=      5-min Rain = 0
KRLS 191930Z 18016KT 24/00 A299 RMK A01 T02370000  RH  021%=      5-min Rain = 0
KRLS 191935Z 20016G21KT 24/00 A2989 RMK A01 T02370002  RH  021%=      5-min Rain = 0
KRLS 191940Z 19015KT 24/00 A2989 RMK A01 T02380002  RH  021%=      5-min Rain = 0
KRLS 191945Z 19015G22KT 24/00 A2989 RMK A01 T02390002  RH  021%=      5-min Rain = 0
KRLS 191950Z 19018G24KT 24/M00 A2988 RMK A01 T02391002  RH  021%=      5-min Rain = 0
KRLS 191955Z 19016G21KT 24/M01 A2988 RMK A01 T02391005  RH  020%=      5-min Rain = 0
KRLS 192000Z 19018G24KT 24/M01 A2988 RMK A01 T02391011  RH  019%=      5-min Rain = 0
KRLS 192005Z 20019G24KT 24/M01 A2987 RMK A01 T02381011  RH  019%=      5-min Rain = 0
KRLS 192010Z 18015G21KT 24/M01 A2987 RMK A01 T02421011  RH  019%=      5-min Rain = 0
KRLS 192015Z 19017G23KT 24/M01 A2987 RMK A01 T02421014  RH  018%=      5-min Rain = 0
KRLS 192020Z 19018KT 24/M02 A2987 RMK A01 T02401015  RH  019%=      5-min Rain = 0
KRLS 192025Z 18016G21KT 24/M01 A2986 RMK A01 T02421012  RH  019%=      5-min Rain = 0
KRLS 192030Z 20017G22KT 24/M01 A2986 RMK A01 T02431011  RH  019%=      5-min Rain = 0
KRLS 192035Z 19013G19KT 25/M01 A2986 RMK A01 T02451009  RH  019%=      5-min Rain = 0
KRLS 192040Z 18015G21KT 25/M01 A2986 RMK A01 T02451010  RH  019%=      5-min Rain = 0
KRLS 192045Z 18016G22KT 24/M01 A2985 RMK A01 T02431013  RH  018%=      5-min Rain = 0
KRLS 192050Z 19016G21KT 24/M01 A2985 RMK A01 T02431012  RH  019%=      5-min Rain = 0
KRLS 192055Z 19015G20KT 24/M01 A2985 RMK A01 T02421012  RH  019%=      5-min Rain = 0
KRLS 192100Z 19013G20KT 25/M01 A2985 RMK A01 T02471008  RH  019%=      5-min Rain = 0
KRLS 192105Z 19015G20KT 25/M01 A2985 RMK A01 T02461009  RH  019%=      5-min Rain = 0
KRLS 192110Z 19015KT 25/M01 A2985 RMK A01 T02451011  RH  018%=      5-min Rain = 0
KRLS 192115Z 18016G23KT 24/M01 A2985 RMK A01 T02441014  RH  018%=      5-min Rain = 0
KRLS 192120Z 19016G22KT 24/M01 A2984 RMK A01 T02421009  RH  019%=      5-min Rain = 0
KRLS 192125Z 19014G21KT 25/M01 A2984 RMK A01 T02451008  RH  019%=      5-min Rain = 0
KRLS 192130Z 20017KT 24/M01 A2984 RMK A01 T02431012  RH  019%=      5-min Rain = 0
KRLS 192135Z 19016KT 24/M01 A2984 RMK A01 T02421008  RH  019%=      5-min Rain = 0
KRLS 192140Z 20015KT 24/M01 A2984 RMK A01 T02391005  RH  020%=      5-min Rain = 0
KRLS 192145Z 19013G18KT 24/M01 A2984 RMK A01 T02391005  RH  020%=      5-min Rain = 0
KRLS 192150Z 19012G17KT 24/M01 A2984 RMK A01 T02411005  RH  020%=      5-min Rain = 0
KRLS 192155Z 19011KT 24/M00 A2984 RMK A01 T02411004  RH  020%=      5-min Rain = 0
KRLS 192200Z 18011KT 24/M01 A2984 RMK A01 T02371006  RH  020%=      5-min Rain = 0
KRLS 192205Z 18012G17KT 23/M00 A2984 RMK A01 T02321004  RH  021%=      5-min Rain = 0
KRLS 192210Z 18011G17KT 24/00 A2983 RMK A01 T023700-0  RH  021%=      5-min Rain = 0
KRLS 192215Z 19012G18KT 24/M00 A2983 RMK A01 T02371002  RH  021%=      5-min Rain = 0
KRLS 192220Z 19010KT 23/M00 A2984 RMK A01 T02341002  RH  021%=      5-min Rain = 0
KRLS 192225Z 19011G17KT 23/M00 A2984 RMK A01 T02261002  RH  022%=      5-min Rain = 0
KRLS 192230Z 18010G15KT 22/M00 A2984 RMK A01 T02221003  RH  023%=      5-min Rain = 0
KRLS 192235Z 19010KT 22/M00 A2984 RMK A01 T02201004  RH  023%=      5-min Rain = 0
KRLS 192240Z 18009KT 22/M00 A2984 RMK A01 T02161002  RH  024%=      5-min Rain = 0
KRLS 192245Z 18008KT 21/M00 A2984 RMK A01 T02121001  RH  024%=      5-min Rain = 0
KRLS 192250Z 18008KT 21/00 A2983 RMK A01 T02090000  RH  025%=      5-min Rain = 0
KRLS 192255Z 18008KT 21/00 A2983 RMK A01 T02060002  RH  026%=      5-min Rain = 0
KRLS 192300Z 17008KT 20/00 A2983 RMK A01 T02030004  RH  027%=      5-min Rain = 0
KRLS 192305Z 17008KT 21/01 A2983 RMK A01 T02070006  RH  027%=      5-min Rain = 0
KRLS 192310Z 17008KT 21/00 A2983 RMK A01 T02060004  RH  026%=      5-min Rain = 0
KRLS 192315Z 17009KT 20/00 A2983 RMK A01 T02030002  RH  026%=      5-min Rain = 0
KRLS 192320Z 17009KT 20/00 A2983 RMK A01 T01990004  RH  028%=      5-min Rain = 0
KRLS 192325Z 17009KT 20/01 A2983 RMK A01 T01970005  RH  028%=      5-min Rain = 0
KRLS 192330Z 16009KT 19/01 A2983 RMK A01 T01930006  RH  029%=      5-min Rain = 0
KRLS 192335Z 16008KT 19/01 A2983 RMK A01 T01900007  RH  030%=      5-min Rain = 0
KRLS 192340Z 16008KT 18/01 A2983 RMK A01 T01840007  RH  031%=      5-min Rain = 0
KRLS 192345Z 16008KT 18/01 A2983 RMK A01 T01800008  RH  032%=      5-min Rain = 0
KRLS 192350Z 16008KT 18/01 A2983 RMK A01 T01780009  RH  032%=      5-min Rain = 0
KRLS 192355Z 16008KT 18/01 A2983 RMK A01 T01750009  RH  033%=      5-min Rain = 0
KRLS 200000Z 16008KT 17/01 A2983 RMK A01 T01730009  RH  034%=      5-min Rain = 0
KRLS 200005Z 16008KT 17/01 A2983 RMK A01 T01710009  RH  034%=      5-min Rain = 0
KRLS 200010Z 16008KT 17/01 A2983 RMK A01 T01690008  RH  034%=      5-min Rain = 0
KRLS 200015Z 16008KT 17/01 A2983 RMK A01 T01670009  RH  035%=      5-min Rain = 0
KRLS 200020Z 16008KT 17/01 A2983 RMK A01 T01650010  RH  035%=      5-min Rain = 0
KRLS 200025Z 16008KT 17/01 A2983 RMK A01 T01650010  RH  035%=      5-min Rain = 0
KRLS 200030Z 16008KT 17/01 A2983 RMK A01 T01650010  RH  036%=      5-min Rain = 0
KRLS 200035Z 16008KT 16/01 A2983 RMK A01 T01620011  RH  036%=      5-min Rain = 0
KRLS 200040Z 16008KT 16/01 A2983 RMK A01 T01630011  RH  036%=      5-min Rain = 0
KRLS 200045Z 16007KT 16/01 A2983 RMK A01 T01620012  RH  037%=      5-min Rain = 0
KRLS 200050Z 16008KT 16/01 A2984 RMK A01 T01610012  RH  037%=      5-min Rain = 0
KRLS 200055Z 16008KT 16/01 A2983 RMK A01 T01610013  RH  037%=      5-min Rain = 0
KRLS 200100Z 16007KT 16/01 A2983 RMK A01 T01600012  RH  037%=      5-min Rain = 0
KRLS 200105Z 16007KT 16/01 A2983 RMK A01 T01560012  RH  038%=      5-min Rain = 0
KRLS 200110Z 16008KT 15/01 A2983 RMK A01 T01520013  RH  039%=      5-min Rain = 0
KRLS 200115Z 16007KT 15/01 A2983 RMK A01 T01490013  RH  040%=      5-min Rain = 0
KRLS 200120Z 16008KT 15/01 A2984 RMK A01 T01450013  RH  041%=      5-min Rain = 0
KRLS 200125Z 16008KT 14/01 A2984 RMK A01 T01420013  RH  042%=      5-min Rain = 0
KRLS 200130Z 16008KT 14/01 A2984 RMK A01 T01400013  RH  043%=      5-min Rain = 0
KRLS 200135Z 16008KT 14/01 A2984 RMK A01 T01420014  RH  042%=      5-min Rain = 0
KRLS 200140Z 16008KT 14/01 A2984 RMK A01 T01440014  RH  042%=      5-min Rain = 0
KRLS 200145Z 16008KT 14/01 A2984 RMK A01 T01440014  RH  042%=      5-min Rain = 0
KRLS 200150Z 17009KT 14/01 A2984 RMK A01 T01430014  RH  042%=      5-min Rain = 0
KRLS 200155Z 17008KT 14/01 A2984 RMK A01 T01380014  RH  043%=      5-min Rain = 0
KRLS 200200Z 17008KT 14/02 A2984 RMK A01 T01370015  RH  044%=      5-min Rain = 0
KRLS 200205Z 17009KT 14/02 A2984 RMK A01 T01440016  RH  043%=      5-min Rain = 0
KRLS 200210Z 17009KT 15/02 A2984 RMK A01 T01510016  RH  041%=      5-min Rain = 0
KRLS 200215Z 17008KT 15/02 A2984 RMK A01 T01500015  RH  040%=      5-min Rain = 0
KRLS 200220Z 17008KT 15/01 A2984 RMK A01 T01450014  RH  042%=      5-min Rain = 0
KRLS 200225Z 17008KT 14/01 A2984 RMK A01 T01400014  RH  043%=      5-min Rain = 0
KRLS 200230Z 17008KT 14/01 A2985 RMK A01 T01360014  RH  044%=      5-min Rain = 0
KRLS 200235Z 17008KT 14/02 A2985 RMK A01 T01360015  RH  044%=      5-min Rain = 0
KRLS 200240Z 17008KT 13/02 A2985 RMK A01 T01330015  RH  045%=      5-min Rain = 0
KRLS 200245Z 16008KT 14/02 A2985 RMK A01 T01350016  RH  045%=      5-min Rain = 0
KRLS 200250Z 16008KT 14/02 A2985 RMK A01 T01350016  RH  045%=      5-min Rain = 0
KRLS 200255Z 16008KT 14/02 A2984 RMK A01 T01360017  RH  045%=      5-min Rain = 0
KRLS 200300Z 16008KT 14/02 A2984 RMK A01 T01350017  RH  045%=      5-min Rain = 0
KRLS 200305Z 16007KT 13/02 A2984 RMK A01 T01310017  RH  047%=      5-min Rain = 0
KRLS 200310Z 16008KT 13/02 A2984 RMK A01 T01280017  RH  047%=      5-min Rain = 0
KRLS 200315Z 16008KT 13/02 A2984 RMK A01 T01270017  RH  048%=      5-min Rain = 0
KRLS 200320Z 16008KT 13/02 A2984 RMK A01 T01280017  RH  048%=      5-min Rain = 0
KRLS 200325Z 16008KT 13/02 A2984 RMK A01 T01290018  RH  047%=      5-min Rain = 0
KRLS 200330Z 16008KT 13/02 A2984 RMK A01 T01290018  RH  048%=      5-min Rain = 0
KRLS 200335Z 16008KT 13/02 A2984 RMK A01 T01290019  RH  048%=      5-min Rain = 0
KRLS 200340Z 16007KT 13/02 A2984 RMK A01 T01300020  RH  048%=      5-min Rain = 0
KRLS 200345Z 17008KT 13/02 A2984 RMK A01 T01280020  RH  049%=      5-min Rain = 0
KRLS 200350Z 17008KT 13/02 A2984 RMK A01 T01270021  RH  049%=      5-min Rain = 0
KRLS 200355Z 18009KT 13/02 A2984 RMK A01 T01280023  RH  050%=      5-min Rain = 0
KRLS 200400Z 18009KT 13/03 A2984 RMK A01 T01330025  RH  049%=      5-min Rain = 0
KRLS 200405Z 18010KT 14/03 A2984 RMK A01 T01350025  RH  048%=      5-min Rain = 0
KRLS 200410Z 18010KT 14/03 A2984 RMK A01 T01390026  RH  047%=      5-min Rain = 0
KRLS 200415Z 18010KT 14/03 A2984 RMK A01 T01400027  RH  047%=      5-min Rain = 0
KRLS 200420Z 18010KT 14/03 A2984 RMK A01 T01410028  RH  047%=      5-min Rain = 0
KRLS 200425Z 18010KT 14/03 A2983 RMK A01 T01410030  RH  048%=      5-min Rain = 0
KRLS 200430Z 18010KT 14/03 A2983 RMK A01 T01420032  RH  048%=      5-min Rain = 0
KRLS 200435Z 19011KT 14/03 A2983 RMK A01 T01430034  RH  049%=      5-min Rain = 0
KRLS 200440Z 19010KT 14/04 A2983 RMK A01 T01440036  RH  049%=      5-min Rain = 0
KRLS 200445Z 19010KT 14/04 A2983 RMK A01 T01430038  RH  050%=      5-min Rain = 0
KRLS 200450Z 19011KT 14/04 A2984 RMK A01 T01440040  RH  050%=      5-min Rain = 0
KRLS 200455Z 19011KT 15/04 A2984 RMK A01 T01460041  RH  050%=      5-min Rain = 0
KRLS 200500Z 19012KT 15/04 A2984 RMK A01 T01470043  RH  051%=      5-min Rain = 0
KRLS 200505Z 19011G16KT 15/05 A2984 RMK A01 T01480045  RH  051%=      5-min Rain = 0
KRLS 200510Z 19011KT 15/05 A2984 RMK A01 T01460045  RH  052%=      5-min Rain = 0
KRLS 200515Z 19011KT 14/05 A2984 RMK A01 T01430046  RH  053%=      5-min Rain = 0
KRLS 200520Z 20011KT 14/05 A2985 RMK A01 T01400046  RH  054%=      5-min Rain = 0
KRLS 200525Z 20011KT 14/05 A2985 RMK A01 T01400048  RH  055%=      5-min Rain = 0
KRLS 200530Z 20011KT 14/05 A2985 RMK A01 T01390049  RH  056%=      5-min Rain = 0
KRLS 200535Z 19010KT 14/05 A2985 RMK A01 T01390051  RH  057%=      5-min Rain = 0
KRLS 200540Z 19010KT 14/05 A2985 RMK A01 T01380052  RH  057%=      5-min Rain = 0
KRLS 200545Z 20010KT 14/05 A2985 RMK A01 T01370052  RH  058%=      5-min Rain = 0
KRLS 200550Z 19009KT 14/05 A2984 RMK A01 T01350053  RH  059%=      5-min Rain = 0
KRLS 200555Z 19008KT 14/05 A2984 RMK A01 T01350054  RH  060%=      5-min Rain = 0

Page generated in 0.0093 seconds.